Pula, Croatia

1:12 PM CEST on June 03, 2015 (GMT +0200)
Astronomical observatory Pula | | Change Station
CLOSE
Current Station
Personal Weather Station
Location: Pula - Istra, CROATIA
Elevation: 92 ft
Nearby Weather Stations

Elev 92 ft 44.87 °N, 13.85 °E | Updated 2 minutes ago

Clear
Clear
64.9 °F
Feels Like 64.9 °F
N
0.0
Wind Variable Wind from North
Gusts 0.0 mph

Today
High -- | Low -- °F
--% Chance of Precip.
Yesterday
High -- | Low -- °F
Precip. -- in
5:20 AM 8:44 PM
Full, 99% visible
Pressure 30.12 in
Visibility -9999.0 miles
Clouds
Dew Point 59 °F
Humidity 74%
Rainfall 0.00 in
Snow Depth Not available.
UV Not available.
Pollen Not available.
Air Quality Not available.
Flu Activity Not available.
METAR LDPL 031100Z 27009KT 230V320 CAVOK 30/18 Q1020 NOSIG

More Conditions Fewer Conditions

Pressure 30.12 in
Visibility -9999.0 miles
Clouds
Dew Point 59 °F
Humidity 74%
Rainfall 0.00 in
Snow Depth Not available.
UV Not available.
Pollen Not available.
Air Quality Not available.
Flu Activity Not available.
METAR LDPL 031100Z 27009KT 230V320 CAVOK 30/18 Q1020 NOSIG

More Conditions Fewer Conditions

10-Day Weather Forecast

×

Almanac

Astronomy

Jun. 03, 2015 Rise Set
Actual Time
Civil Twilight
Nautical Twilight
Astronomical Twilight
Moon
Length of Visible Light
Length of Day
Tomorrow will be .
, % of the Moon is Illuminated

Today's Extremes

Country Highs Country Lows

Community

WunderPhotos

Upload Photos

1,826,205 photos uploaded!

WunderBlogs® & News

Nearby

Air Quality

  Air Quality AQ Index Pollutant
Not available.

Snow Depth

Station Depth Elevation

Earthquake Activity

City Distance Mag. Time & Date
Minimum magnitude displayed is 2.5.

Coastal Water Temperatures

Place Temperature

Stations

Nearby Weather Stations

Station Location Temp. Windchill Dew Point Humidity Wind Precip. Elev Updated Type